createdAt,value
2023-05-14T00:00:05.398Z,10.30
2023-05-14T00:02:33.349Z,10.30
2023-05-14T00:05:01.284Z,10.30
2023-05-14T00:07:31.159Z,10.30
2023-05-14T00:09:59.143Z,10.30
2023-05-14T00:12:27.327Z,10.30
2023-05-14T00:14:55.258Z,10.30
2023-05-14T00:17:23.169Z,10.30
2023-05-14T00:19:51.191Z,10.30
2023-05-14T00:22:19.051Z,10.30
2023-05-14T00:24:48.276Z,10.30
2023-05-14T00:27:16.106Z,10.30
2023-05-14T00:29:45.647Z,10.20
2023-05-14T00:32:13.574Z,10.20
2023-05-14T00:34:41.436Z,10.20
2023-05-14T00:37:09.354Z,10.20
2023-05-14T00:39:37.205Z,10.20
2023-05-14T00:42:06.879Z,10.20
2023-05-14T00:44:34.761Z,10.20
2023-05-14T00:47:02.718Z,10.20
2023-05-14T00:49:30.613Z,10.20
2023-05-14T00:51:59.143Z,10.10
2023-05-14T00:54:27.111Z,10.10
2023-05-14T00:56:55.355Z,10.10
2023-05-14T00:59:24.650Z,10.20
2023-05-14T01:01:52.621Z,10.20
2023-05-14T01:04:20.534Z,10.10
2023-05-14T01:06:55.351Z,10.20
2023-05-14T01:09:27.568Z,10.20
2023-05-14T01:11:59.800Z,10.20
2023-05-14T01:14:34.278Z,10.20
2023-05-14T01:17:03.783Z,10.30
2023-05-14T01:19:34.976Z,10.20
2023-05-14T01:22:04.286Z,10.30
2023-05-14T01:24:32.095Z,10.20
2023-05-14T01:27:02.731Z,10.20
2023-05-14T01:29:32.358Z,10.20
2023-05-14T01:32:01.579Z,10.20
2023-05-14T01:34:31.269Z,10.20
2023-05-14T01:36:59.293Z,10.20
2023-05-14T01:39:28.845Z,10.20
2023-05-14T01:41:56.755Z,10.20
2023-05-14T01:44:24.689Z,10.20
2023-05-14T01:46:52.546Z,10.20
2023-05-14T01:49:20.418Z,10.20
2023-05-14T01:51:48.266Z,10.20
2023-05-14T01:54:16.121Z,10.20
2023-05-14T01:56:45.365Z,10.20
2023-05-14T01:59:13.275Z,10.20
2023-05-14T02:01:41.335Z,10.20
2023-05-14T02:04:09.365Z,10.20
2023-05-14T02:06:37.277Z,10.30
2023-05-14T02:09:06.242Z,10.20
2023-05-14T02:11:34.087Z,10.20
2023-05-14T02:14:03.277Z,10.30
2023-05-14T02:16:31.243Z,10.30
2023-05-14T02:18:59.190Z,10.20
2023-05-14T02:21:27.019Z,10.20
2023-05-14T02:23:56.075Z,10.20
2023-05-14T02:26:23.954Z,10.20
2023-05-14T02:28:51.812Z,10.20
2023-05-14T02:31:21.173Z,10.20
2023-05-14T02:33:49.063Z,10.20
2023-05-14T02:36:16.916Z,10.20
2023-05-14T02:38:44.778Z,10.20
2023-05-14T02:41:12.705Z,10.20
2023-05-14T02:43:41.191Z,10.20
2023-05-14T02:46:09.197Z,10.20
2023-05-14T02:48:38.709Z,10.20
2023-05-14T02:51:06.585Z,10.20
2023-05-14T02:53:34.510Z,10.20
2023-05-14T02:56:02.384Z,10.20
2023-05-14T02:58:32.130Z,10.20
2023-05-14T03:01:00.017Z,10.20
2023-05-14T03:03:28.292Z,10.20
2023-05-14T03:05:57.826Z,10.20
2023-05-14T03:08:25.753Z,10.20
2023-05-14T03:10:53.635Z,10.20
2023-05-14T03:13:21.515Z,10.20
2023-05-14T03:15:49.506Z,10.20
2023-05-14T03:18:17.331Z,10.20
2023-05-14T03:20:45.302Z,10.20
2023-05-14T03:23:14.885Z,10.20
2023-05-14T03:25:42.802Z,10.10
2023-05-14T03:28:10.978Z,10.20
2023-05-14T03:30:38.965Z,10.20
2023-05-14T03:33:06.979Z,10.20
2023-05-14T03:35:34.892Z,10.20
2023-05-14T03:38:02.781Z,10.20
2023-05-14T03:40:32.153Z,10.20
2023-05-14T03:43:00.052Z,10.10
2023-05-14T03:45:28.708Z,10.10
2023-05-14T03:47:56.624Z,10.10
2023-05-14T03:50:25.598Z,10.10
2023-05-14T03:52:54.891Z,10.10
2023-05-14T03:55:22.870Z,10.10
2023-05-14T03:57:52.117Z,10.10
2023-05-14T04:00:20.199Z,10.10
2023-05-14T04:02:48.270Z,10.10
2023-05-14T04:05:16.324Z,10.10
2023-05-14T04:07:45.767Z,10.10
2023-05-14T04:10:14.113Z,10.10
2023-05-14T04:12:42.070Z,10.10
2023-05-14T04:15:12.171Z,10.10
2023-05-14T04:17:40.038Z,10.10
2023-05-14T04:20:08.688Z,10.10
2023-05-14T04:22:36.593Z,10.10
2023-05-14T04:25:04.860Z,10.10
2023-05-14T04:27:33.753Z,10.10
2023-05-14T04:30:01.682Z,10.20
2023-05-14T04:32:31.240Z,10.20
2023-05-14T04:34:59.053Z,10.20
2023-05-14T04:37:26.973Z,10.20
2023-05-14T04:39:54.804Z,10.20
2023-05-14T04:42:22.651Z,10.20
2023-05-14T04:44:50.522Z,10.20
2023-05-14T04:47:18.436Z,10.20
2023-05-14T04:49:47.707Z,10.20
2023-05-14T04:52:15.556Z,10.30
2023-05-14T04:54:43.507Z,10.30
2023-05-14T04:57:11.420Z,10.30
2023-05-14T04:59:39.239Z,10.30
2023-05-14T05:02:07.180Z,10.40
2023-05-14T05:04:35.098Z,10.40
2023-05-14T05:07:05.680Z,10.40
2023-05-14T05:09:33.589Z,10.50
2023-05-14T05:12:02.046Z,10.50
2023-05-14T05:14:29.926Z,10.50
2023-05-14T05:16:57.753Z,10.50
2023-05-14T05:19:35.658Z,10.50
2023-05-14T05:22:12.204Z,10.50
2023-05-14T05:24:40.043Z,10.50
2023-05-14T05:27:07.915Z,10.50
2023-05-14T05:29:36.211Z,10.50
2023-05-14T05:32:04.103Z,10.50
2023-05-14T05:34:32.005Z,10.50
2023-05-14T05:36:59.874Z,10.50
2023-05-14T05:39:34.581Z,10.50
2023-05-14T05:42:03.177Z,10.50
2023-05-14T05:44:31.027Z,10.50
2023-05-14T05:46:59.010Z,10.50
2023-05-14T05:49:26.987Z,10.50
2023-05-14T05:51:54.873Z,10.50
2023-05-14T05:54:24.000Z,10.50
2023-05-14T05:56:53.313Z,10.50
2023-05-14T05:59:21.203Z,10.50
2023-05-14T06:01:49.108Z,10.60
2023-05-14T06:04:17.008Z,10.50
2023-05-14T06:06:44.994Z,10.50
2023-05-14T06:09:13.258Z,10.50
2023-05-14T06:11:41.313Z,10.50
2023-05-14T06:14:10.573Z,10.40
2023-05-14T06:16:38.568Z,10.50
2023-05-14T06:19:06.562Z,10.50
2023-05-14T06:21:34.494Z,10.50
2023-05-14T06:24:02.450Z,10.50
2023-05-14T06:26:30.473Z,10.60
2023-05-14T06:28:58.550Z,10.70
2023-05-14T06:31:27.996Z,10.70
2023-05-14T06:33:55.869Z,10.80
2023-05-14T06:36:23.712Z,10.90
2023-05-14T06:38:51.602Z,11.00
2023-05-14T06:41:19.475Z,11.00
2023-05-14T06:43:47.411Z,11.00
2023-05-14T06:46:15.335Z,11.10
2023-05-14T06:48:44.615Z,11.10
2023-05-14T06:51:13.234Z,11.10
2023-05-14T06:53:41.389Z,11.20
2023-05-14T06:56:09.275Z,11.30
2023-05-14T06:58:37.216Z,11.30
2023-05-14T07:01:05.350Z,11.40
2023-05-14T07:03:33.317Z,11.40
2023-05-14T07:06:02.647Z,11.40
2023-05-14T07:08:30.510Z,11.50
2023-05-14T07:10:59.330Z,11.50
2023-05-14T07:13:28.626Z,11.50
2023-05-14T07:15:56.818Z,11.60
2023-05-14T07:18:25.082Z,11.60
2023-05-14T07:20:52.984Z,11.70
2023-05-14T07:23:22.308Z,11.80
2023-05-14T07:25:50.274Z,11.80
2023-05-14T07:28:18.185Z,11.80
2023-05-14T07:30:46.112Z,11.80
2023-05-14T07:33:14.034Z,11.90
2023-05-14T07:35:41.942Z,11.90
2023-05-14T07:38:09.852Z,11.80
2023-05-14T07:40:39.072Z,11.90
2023-05-14T07:43:06.922Z,11.80
2023-05-14T07:45:34.826Z,11.90
2023-05-14T07:48:02.779Z,12.00
2023-05-14T07:50:31.385Z,12.00
2023-05-14T07:52:59.449Z,12.10
2023-05-14T07:55:27.326Z,12.00
2023-05-14T07:57:56.602Z,11.90
2023-05-14T08:00:24.711Z,11.90
2023-05-14T08:02:52.877Z,12.00
2023-05-14T08:05:20.986Z,12.00
2023-05-14T08:07:48.963Z,12.00
2023-05-14T08:10:16.840Z,12.10
2023-05-14T08:12:44.725Z,12.00
2023-05-14T08:15:14.089Z,12.00
2023-05-14T08:17:41.993Z,12.00
2023-05-14T08:20:11.894Z,11.90
2023-05-14T08:22:39.815Z,11.90
2023-05-14T08:25:08.080Z,11.80
2023-05-14T08:27:36.161Z,11.70
2023-05-14T08:30:04.255Z,11.70
2023-05-14T08:32:33.523Z,11.70
2023-05-14T08:35:01.503Z,11.70
2023-05-14T08:37:29.378Z,11.70
2023-05-14T08:39:57.261Z,11.60
2023-05-14T08:42:25.464Z,11.60
2023-05-14T08:44:55.043Z,11.60
2023-05-14T08:47:23.177Z,11.60
2023-05-14T08:49:54.146Z,11.60
2023-05-14T08:52:23.268Z,11.50
2023-05-14T08:54:51.972Z,11.50
2023-05-14T08:57:19.907Z,11.40
2023-05-14T08:59:48.466Z,11.40
2023-05-14T09:02:17.804Z,11.40
2023-05-14T09:04:45.949Z,11.40
2023-05-14T09:07:15.906Z,11.30
2023-05-14T09:09:45.040Z,11.30
2023-05-14T09:12:13.028Z,11.30
2023-05-14T09:14:41.347Z,11.30
2023-05-14T09:17:09.319Z,11.30
2023-05-14T09:19:39.056Z,11.30
2023-05-14T09:22:09.413Z,11.30
2023-05-14T09:24:39.478Z,11.40
2023-05-14T09:27:07.643Z,11.40
2023-05-14T09:29:35.594Z,11.50
2023-05-14T09:32:05.591Z,11.60
2023-05-14T09:34:37.818Z,11.70
2023-05-14T09:37:06.410Z,11.80
2023-05-14T09:39:34.992Z,11.90
2023-05-14T09:42:04.686Z,12.00
2023-05-14T09:44:32.882Z,12.10
2023-05-14T09:47:00.825Z,12.20
2023-05-14T09:49:28.799Z,12.20
2023-05-14T09:51:57.877Z,12.20
2023-05-14T09:54:27.137Z,12.20
2023-05-14T09:56:55.823Z,12.20
2023-05-14T09:59:25.229Z,12.10
2023-05-14T10:01:54.075Z,12.00
2023-05-14T10:04:23.023Z,11.90
2023-05-14T10:06:52.196Z,11.80
2023-05-14T10:09:23.219Z,11.80
2023-05-14T10:11:53.139Z,11.70
2023-05-14T10:14:24.232Z,11.70
2023-05-14T10:16:54.196Z,11.70
2023-05-14T10:19:24.623Z,11.80
2023-05-14T10:21:54.635Z,11.80
2023-05-14T10:24:23.097Z,11.70
2023-05-14T10:26:51.000Z,11.60
2023-05-14T10:29:18.940Z,11.60
2023-05-14T10:31:50.769Z,11.50
2023-05-14T10:34:40.802Z,11.50
2023-05-14T10:37:09.413Z,11.50
2023-05-14T10:39:44.544Z,11.50
2023-05-14T10:42:12.992Z,11.50
2023-05-14T10:44:44.069Z,11.50
2023-05-14T10:47:12.462Z,11.50
2023-05-14T10:49:43.940Z,11.60
2023-05-14T10:52:12.823Z,11.70
2023-05-14T10:54:40.715Z,11.80
2023-05-14T10:57:12.131Z,11.80
2023-05-14T10:59:42.614Z,11.80
2023-05-14T11:02:19.692Z,11.80
2023-05-14T11:04:53.140Z,11.80
2023-05-14T11:07:24.150Z,11.70
2023-05-14T11:09:52.088Z,11.80
2023-05-14T11:12:20.014Z,11.70
2023-05-14T11:14:48.592Z,11.70
2023-05-14T11:17:16.774Z,11.70
2023-05-14T11:19:44.975Z,11.70
2023-05-14T11:22:14.703Z,11.70
2023-05-14T11:24:42.620Z,11.70
2023-05-14T11:27:11.498Z,11.80
2023-05-14T11:29:39.796Z,11.70
2023-05-14T11:32:07.957Z,11.70
2023-05-14T11:34:36.959Z,11.70
2023-05-14T11:37:05.696Z,11.60
2023-05-14T11:39:36.090Z,11.60
2023-05-14T11:42:04.469Z,11.60
2023-05-14T11:44:32.425Z,11.60
2023-05-14T11:47:01.316Z,11.50
2023-05-14T11:49:30.032Z,11.40
2023-05-14T11:51:58.370Z,11.40
2023-05-14T11:54:26.901Z,11.40
2023-05-14T11:56:57.559Z,11.40
2023-05-14T11:59:25.685Z,11.40
2023-05-14T12:01:53.606Z,11.30
2023-05-14T12:04:22.774Z,11.30
2023-05-14T12:06:50.860Z,11.20
2023-05-14T12:09:19.158Z,11.20
2023-05-14T12:11:47.703Z,11.20
2023-05-14T12:14:17.763Z,11.10
2023-05-14T12:16:46.171Z,11.10
2023-05-14T12:19:15.829Z,11.00
2023-05-14T12:21:44.564Z,11.00
2023-05-14T12:24:13.299Z,10.90
2023-05-14T12:26:41.562Z,11.00
2023-05-14T12:29:09.449Z,11.00
2023-05-14T12:31:38.724Z,11.00
2023-05-14T12:34:06.683Z,11.00
2023-05-14T12:36:34.802Z,11.10
2023-05-14T12:39:03.744Z,11.30
2023-05-14T12:41:31.927Z,11.20
2023-05-14T12:44:03.507Z,11.30
2023-05-14T12:46:31.832Z,11.20
2023-05-14T12:49:01.863Z,11.20
2023-05-14T12:51:30.255Z,11.30
2023-05-14T12:53:58.244Z,11.30
2023-05-14T12:56:28.334Z,11.30
2023-05-14T12:58:56.899Z,11.30
2023-05-14T13:01:25.000Z,11.40
2023-05-14T13:03:52.991Z,11.40
2023-05-14T13:06:22.406Z,11.40
2023-05-14T13:08:50.344Z,11.40
2023-05-14T13:11:18.244Z,11.30
2023-05-14T13:13:46.096Z,11.40
2023-05-14T13:16:16.886Z,11.40
2023-05-14T13:18:45.015Z,11.40
2023-05-14T13:21:12.979Z,11.40
2023-05-14T13:23:42.598Z,11.40
2023-05-14T13:26:10.712Z,11.40
2023-05-14T13:28:38.524Z,11.50
2023-05-14T13:31:07.835Z,11.40
2023-05-14T13:33:37.021Z,11.40
2023-05-14T13:36:05.401Z,11.40
2023-05-14T13:38:33.376Z,11.50
2023-05-14T13:41:03.060Z,11.50
2023-05-14T13:43:31.361Z,11.50
2023-05-14T13:45:59.378Z,11.60
2023-05-14T13:48:27.683Z,11.60
2023-05-14T13:50:55.919Z,11.60
2023-05-14T13:53:24.431Z,11.60
2023-05-14T13:55:56.454Z,11.60
2023-05-14T13:58:26.292Z,11.60
2023-05-14T14:00:54.401Z,11.50
2023-05-14T14:03:22.458Z,11.50
2023-05-14T14:05:51.558Z,11.50
2023-05-14T14:08:23.799Z,11.40
2023-05-14T14:10:54.576Z,11.40
2023-05-14T14:13:23.326Z,11.30
2023-05-14T14:15:52.772Z,11.40
2023-05-14T14:18:20.805Z,11.30
2023-05-14T14:20:48.692Z,11.30
2023-05-14T14:23:16.623Z,11.30
2023-05-14T14:25:44.762Z,11.30
2023-05-14T14:28:12.891Z,11.40
2023-05-14T14:30:41.055Z,11.40
2023-05-14T14:33:10.340Z,11.30
2023-05-14T14:35:38.537Z,11.30
2023-05-14T14:38:06.479Z,11.20
2023-05-14T14:40:34.482Z,11.20
2023-05-14T14:43:03.002Z,11.20
2023-05-14T14:45:31.062Z,11.20
2023-05-14T14:48:14.351Z,11.10
2023-05-14T14:50:43.581Z,11.20
2023-05-14T14:53:11.533Z,11.20
2023-05-14T14:55:39.461Z,11.20
2023-05-14T14:58:07.348Z,11.10
2023-05-14T15:00:35.326Z,11.10
2023-05-14T15:03:03.300Z,11.00
2023-05-14T15:05:31.360Z,11.00
2023-05-14T15:08:00.610Z,11.00
2023-05-14T15:10:28.687Z,11.00
2023-05-14T15:12:57.620Z,11.00
2023-05-14T15:15:25.698Z,11.00
2023-05-14T15:17:53.681Z,11.10
2023-05-14T15:20:21.553Z,11.10
2023-05-14T15:22:52.234Z,11.20
2023-05-14T15:25:21.886Z,11.20
2023-05-14T15:27:50.093Z,11.30
2023-05-14T15:30:18.097Z,11.30
2023-05-14T15:32:46.408Z,11.40
2023-05-14T15:35:14.428Z,11.30
2023-05-14T15:37:43.088Z,11.30
2023-05-14T15:40:11.591Z,11.30
2023-05-14T15:42:41.966Z,11.30
2023-05-14T15:45:10.588Z,11.30
2023-05-14T15:47:38.692Z,11.30
2023-05-14T15:50:07.232Z,11.30
2023-05-14T15:52:35.220Z,11.20
2023-05-14T15:55:03.123Z,11.20
2023-05-14T15:57:31.662Z,11.20
2023-05-14T16:00:00.946Z,11.30
2023-05-14T16:02:30.455Z,11.20
2023-05-14T16:04:58.718Z,11.20
2023-05-14T16:07:26.549Z,11.10
2023-05-14T16:09:54.778Z,11.10
2023-05-14T16:12:22.719Z,11.10
2023-05-14T16:14:50.617Z,11.20
2023-05-14T16:17:19.856Z,11.20
2023-05-14T16:19:47.830Z,11.20
2023-05-14T16:22:15.726Z,11.30
2023-05-14T16:24:44.997Z,11.20
2023-05-14T16:27:13.416Z,11.20
2023-05-14T16:29:41.317Z,11.10
2023-05-14T16:32:09.232Z,11.10
2023-05-14T16:34:38.543Z,11.00
2023-05-14T16:37:06.444Z,11.00
2023-05-14T16:39:34.682Z,11.00
2023-05-14T16:42:02.561Z,11.00
2023-05-14T16:44:30.444Z,11.00
2023-05-14T16:46:58.325Z,11.00
2023-05-14T16:49:26.280Z,10.90
2023-05-14T16:51:55.979Z,10.90
2023-05-14T16:54:23.851Z,10.80
2023-05-14T16:56:51.901Z,10.90
2023-05-14T16:59:20.832Z,10.80
2023-05-14T17:01:49.177Z,10.70
2023-05-14T17:04:17.908Z,10.70
2023-05-14T17:06:46.931Z,10.70
2023-05-14T17:09:16.599Z,10.70
2023-05-14T17:11:45.799Z,10.60
2023-05-14T17:14:14.024Z,10.60
2023-05-14T17:16:42.352Z,10.60
2023-05-14T17:19:10.326Z,10.50
2023-05-14T17:21:38.297Z,10.50
2023-05-14T17:24:06.440Z,10.50
2023-05-14T17:26:35.917Z,10.50
2023-05-14T17:29:04.225Z,10.50
2023-05-14T17:31:32.191Z,10.40
2023-05-14T17:34:00.831Z,10.40
2023-05-14T17:36:28.895Z,10.40
2023-05-14T17:38:56.936Z,10.30
2023-05-14T17:41:24.895Z,10.30
2023-05-14T17:43:54.153Z,10.30
2023-05-14T17:46:22.316Z,10.20
2023-05-14T17:48:50.256Z,10.20
2023-05-14T17:51:18.089Z,10.20
2023-05-14T17:53:46.192Z,10.20
2023-05-14T17:56:14.168Z,10.20
2023-05-14T17:58:41.975Z,10.20
2023-05-14T18:01:11.571Z,10.20
2023-05-14T18:03:39.633Z,10.20
2023-05-14T18:06:07.635Z,10.10
2023-05-14T18:08:35.741Z,10.20
2023-05-14T18:11:03.731Z,10.20
2023-05-14T18:13:31.877Z,10.20
2023-05-14T18:16:00.707Z,10.20
2023-05-14T18:18:30.189Z,10.10
2023-05-14T18:20:58.162Z,10.10
2023-05-14T18:23:26.216Z,10.10
2023-05-14T18:25:54.160Z,10.10
2023-05-14T18:28:22.385Z,10.00
2023-05-14T18:30:50.469Z,10.00
2023-05-14T18:33:18.462Z,10.00
2023-05-14T18:35:47.758Z,10.00
2023-05-14T18:38:17.819Z,10.00
2023-05-14T18:40:46.178Z,10.00
2023-05-14T18:43:15.022Z,10.00
2023-05-14T18:45:42.910Z,10.00
2023-05-14T18:48:11.458Z,9.90
2023-05-14T18:50:39.614Z,9.90
2023-05-14T18:53:08.865Z,10.00
2023-05-14T18:55:37.139Z,9.90
2023-05-14T18:58:05.390Z,10.00
2023-05-14T19:00:35.087Z,9.90
2023-05-14T19:03:05.715Z,9.90
2023-05-14T19:05:33.679Z,9.90
2023-05-14T19:08:02.103Z,9.90
2023-05-14T19:10:31.597Z,9.90
2023-05-14T19:12:59.479Z,9.80
2023-05-14T19:15:27.361Z,9.80
2023-05-14T19:17:55.820Z,9.80
2023-05-14T19:20:23.730Z,9.80
2023-05-14T19:22:51.817Z,9.70
2023-05-14T19:25:19.755Z,9.80
2023-05-14T19:27:51.019Z,9.80
2023-05-14T19:30:20.214Z,9.80
2023-05-14T19:32:48.124Z,9.80
2023-05-14T19:35:16.468Z,9.70
2023-05-14T19:37:44.362Z,9.70
2023-05-14T19:40:12.386Z,9.70
2023-05-14T19:42:40.230Z,9.80
2023-05-14T19:45:10.284Z,9.70
2023-05-14T19:47:38.363Z,9.70
2023-05-14T19:50:08.415Z,9.80
2023-05-14T19:52:36.297Z,9.80
2023-05-14T19:55:04.228Z,9.80
2023-05-14T19:57:32.085Z,9.80
2023-05-14T19:59:59.960Z,9.80
2023-05-14T20:02:29.301Z,9.80
2023-05-14T20:04:57.939Z,9.70
2023-05-14T20:07:26.966Z,9.70
2023-05-14T20:09:54.860Z,9.70
2023-05-14T20:12:22.716Z,9.70
2023-05-14T20:14:50.787Z,9.70
2023-05-14T20:17:18.722Z,9.70
2023-05-14T20:19:47.996Z,9.70
2023-05-14T20:22:16.159Z,9.70
2023-05-14T20:24:44.493Z,9.70
2023-05-14T20:27:12.508Z,9.70
2023-05-14T20:29:40.380Z,9.70
2023-05-14T20:32:08.575Z,9.70
2023-05-14T20:34:36.464Z,9.70
2023-05-14T20:37:06.751Z,9.70
2023-05-14T20:39:34.626Z,9.70
2023-05-14T20:42:02.481Z,9.70
2023-05-14T20:44:30.355Z,9.70
2023-05-14T20:46:58.224Z,9.70
2023-05-14T20:49:26.333Z,9.70
2023-05-14T20:51:54.171Z,9.70
2023-05-14T20:54:23.382Z,9.70
2023-05-14T20:56:51.411Z,9.70
2023-05-14T20:59:19.361Z,9.70
2023-05-14T21:01:47.338Z,9.70
2023-05-14T21:04:15.370Z,9.70
2023-05-14T21:06:43.716Z,9.70
2023-05-14T21:09:12.072Z,9.70
2023-05-14T21:11:41.341Z,9.60
2023-05-14T21:14:09.189Z,9.60
2023-05-14T21:16:37.187Z,9.70
2023-05-14T21:19:05.229Z,9.70
2023-05-14T21:21:33.118Z,9.70
2023-05-14T21:24:00.984Z,9.60
2023-05-14T21:26:32.369Z,9.60
2023-05-14T21:29:01.653Z,9.60
2023-05-14T21:31:29.589Z,9.60
2023-05-14T21:33:57.487Z,9.60
2023-05-14T21:36:25.369Z,9.60
2023-05-14T21:38:53.927Z,9.60
2023-05-14T21:41:22.163Z,9.60
2023-05-14T21:43:50.086Z,9.60
2023-05-14T21:46:22.250Z,9.60
2023-05-14T21:48:50.289Z,9.60
2023-05-14T21:51:18.280Z,9.60
2023-05-14T21:53:46.271Z,9.60
2023-05-14T21:56:14.125Z,9.60
2023-05-14T21:58:42.192Z,9.60
2023-05-14T22:01:11.523Z,9.60
2023-05-14T22:03:40.941Z,9.60
2023-05-14T22:06:08.866Z,9.60
2023-05-14T22:08:36.731Z,9.60
2023-05-14T22:11:04.735Z,9.50
2023-05-14T22:13:32.744Z,9.50
2023-05-14T22:16:09.233Z,9.50
2023-05-14T22:18:42.585Z,9.50
2023-05-14T22:21:10.545Z,9.50
2023-05-14T22:23:38.454Z,9.50
2023-05-14T22:26:06.339Z,9.50
2023-05-14T22:28:34.202Z,9.50
2023-05-14T22:31:02.140Z,9.50
2023-05-14T22:33:30.062Z,9.50
2023-05-14T22:35:59.353Z,9.50
2023-05-14T22:38:27.205Z,9.50
2023-05-14T22:40:55.189Z,9.50
2023-05-14T22:43:23.045Z,9.40
2023-05-14T22:45:50.970Z,9.50
2023-05-14T22:48:18.866Z,9.40
2023-05-14T22:50:46.724Z,9.50
2023-05-14T22:53:16.219Z,9.50
2023-05-14T22:55:44.091Z,9.40
2023-05-14T22:58:11.965Z,9.40
2023-05-14T23:00:39.842Z,9.50
2023-05-14T23:03:07.769Z,9.40
2023-05-14T23:05:35.828Z,9.40
2023-05-14T23:08:03.693Z,9.40
2023-05-14T23:10:33.106Z,9.40
2023-05-14T23:13:01.468Z,9.40
2023-05-14T23:15:29.633Z,9.40
2023-05-14T23:17:57.561Z,9.40
2023-05-14T23:20:25.569Z,9.40
2023-05-14T23:22:54.122Z,9.40
2023-05-14T23:25:22.123Z,9.40
2023-05-14T23:27:51.582Z,9.40
2023-05-14T23:30:19.497Z,9.40
2023-05-14T23:32:47.424Z,9.40
2023-05-14T23:35:15.462Z,9.40
2023-05-14T23:37:47.167Z,9.40
2023-05-14T23:40:15.662Z,9.40
2023-05-14T23:42:44.530Z,9.40
2023-05-14T23:45:13.902Z,9.40
2023-05-14T23:47:42.225Z,9.40
2023-05-14T23:50:10.279Z,9.40
2023-05-14T23:52:38.123Z,9.30
2023-05-14T23:55:06.458Z,9.40
2023-05-14T23:57:34.368Z,9.30
